Latest Weather Observations for Milingimbi

IDD60801

Issued at 12:31 pm CST Friday 19 December 2014 (issued every 30 minutes, with the page automatically refreshed every 10 minutes)

About weather observations | Map of weather stations | Latest weather observations for NT | Other Formats
Station Details ID: 014404 Name: MILINGIMBI AIRPORT Lat: -12.09 Lon: 134.89 Height: 15.0 m
Data from the previous 72 hours. | See also: Recent months at Milingimbi
Date/Time
CST
Temp
°C
App
Temp
°C
Dew
Point
Rel
Hum
%
Delta-T
°C
Wind Press
QNH
hPa
Press
MSL
hPa
Rain
since 9 am
mm
Dir
 
Spd
km/h
Gust
km/h
Spd
kts
Gust
kts
19/12:30pm 34.4 37.3 23.1 51 7.8 N 13 22 7 12 1009.3 - 0.0
19/12:00pm 34.7 38.4 24.6 55 7.1 N 13 28 7 15 1009.8 1009.6 0.0
19/11:30am 33.8 36.9 23.5 55 7.2 N 13 22 7 12 1010.3 - 0.0
19/11:00am 33.4 36.4 24.0 58 6.6 N 15 20 8 11 1010.5 - 0.0
19/10:30am 33.4 36.6 23.7 56 6.8 N 13 19 7 10 1010.7 - 0.0
19/10:00am 34.1 38.1 23.8 55 7.2 W 9 17 5 9 1010.9 - 0.0
19/09:30am 32.8 36.3 22.9 56 6.8 WNW 9 13 5 7 1011.0 - 0.0
19/09:00am 32.3 36.0 23.3 59 6.2 NW 9 15 5 8 1010.9 1010.7 0.0
19/08:30am 32.1 36.0 24.2 63 5.5 WNW 11 17 6 9 1010.8 - 0.0
19/08:00am 31.4 34.7 24.5 67 4.8 W 15 20 8 11 1010.5 - 0.0
19/07:30am 30.7 35.3 24.8 71 4.1 WNW 9 13 5 7 1010.7 - 0.0
19/07:00am 29.3 35.8 25.1 78 3.0 CALM 0 0 0 0 1010.3 - 0.0
19/06:30am 28.0 34.5 25.0 84 2.1 CALM 0 0 0 0 1010.0 - 0.0
19/06:00am 27.7 34.1 24.9 85 2.0 CALM 0 0 0 0 1009.8 1009.6 0.0
19/05:30am 27.8 34.1 24.8 84 2.1 CALM 0 0 0 0 1009.5 - 0.0
19/05:00am 27.8 34.1 24.8 84 2.1 CALM 0 4 0 2 1009.3 - 0.0
19/04:30am 27.9 34.3 24.9 84 2.1 CALM 0 0 0 0 1009.2 - 0.0
19/04:00am 28.1 34.6 25.1 84 2.1 CALM 0 0 0 0 1009.1 - 0.0
19/03:30am 28.1 34.4 24.7 82 2.4 CALM 0 0 0 0 1008.8 - 0.0
19/03:00am 28.1 34.2 24.5 81 2.5 CALM 0 0 0 0 1008.5 1008.3 0.0
19/02:30am 28.7 35.1 24.9 80 2.7 CALM 0 0 0 0 1008.5 - 0.0
19/02:00am 28.6 34.7 25.0 81 2.5 NW 2 7 1 4 1008.6 - 0.0
19/01:30am 28.3 34.6 24.7 81 2.5 CALM 0 6 0 3 1008.9 - 0.0
19/01:00am 28.9 34.8 24.7 78 2.9 W 2 7 1 4 1009.3 - 0.0
19/12:30am 29.3 34.5 24.8 77 3.2 WNW 6 7 3 4 1009.9 - 0.0
19/12:00am 29.5 34.7 24.8 76 3.3 NNW 6 7 3 4 1010.0 1009.8 0.0
 
Date/Time
CST
Temp
°C
App
Temp
°C
Dew
Point
Rel
Hum
%
Delta-T
°C
Wind Press
QNH
hPa
Press
MSL
hPa
Rain
since 9 am
mm
Dir
 
Spd
km/h
Gust
km/h
Spd
kts
Gust
kts
18/11:30pm 29.8 34.9 24.9 75 3.4 NW 7 9 4 5 1010.0 - 0.0
18/11:00pm 29.9 35.0 25.0 75 3.4 NNW 7 11 4 6 1009.9 - 0.0
18/10:30pm 29.9 35.0 25.0 75 3.4 NNW 7 11 4 6 1009.6 - 0.0
18/10:00pm 29.9 35.2 25.0 75 3.4 NNW 6 9 3 5 1009.4 - 0.0
18/09:30pm 30.1 35.2 24.7 73 3.8 NNW 6 11 3 6 1009.1 - 0.0
18/09:00pm 30.4 35.4 24.8 72 3.9 NW 7 11 4 6 1008.7 1008.5 0.0
18/08:30pm 30.5 35.2 24.9 72 3.9 NNW 9 15 5 8 1008.2 - 0.0
18/08:00pm 30.4 35.4 24.8 72 3.9 NNW 7 13 4 7 1007.6 - 0.0
18/07:30pm 30.6 35.0 24.5 70 4.3 NNW 9 15 5 8 1007.4 - 0.0
18/07:00pm 30.7 35.3 24.8 71 4.1 N 9 15 5 8 1007.3 - 0.0
18/06:30pm 31.2 35.3 24.6 68 4.6 NNW 11 15 6 8 1007.2 - 0.0
18/06:00pm 31.2 34.8 24.3 66 4.8 N 13 24 7 13 1006.9 1006.7 0.0
18/05:30pm 32.0 35.7 24.6 65 5.2 N 13 19 7 10 1006.6 - 0.0
18/05:00pm 32.3 36.0 25.1 65 5.1 N 15 26 8 14 1006.7 - 0.0
18/04:30pm 32.5 35.9 25.3 66 5.1 N 17 26 9 14 1006.5 - 0.0
18/04:00pm 32.8 36.7 24.8 62 5.6 N 13 28 7 15 1006.8 - 0.0
18/03:30pm 32.7 36.1 25.2 64 5.3 NNW 17 24 9 13 1007.2 - 0.0
18/03:00pm 33.0 36.7 25.8 66 5.1 N 17 26 9 14 1007.4 1007.2 0.0
18/02:30pm 32.8 35.7 24.5 61 5.8 N 17 28 9 15 1007.7 - 0.0
18/02:00pm 33.7 37.8 25.7 63 5.7 N 15 24 8 13 1008.0 - 0.0
18/01:30pm 33.6 37.3 25.8 63 5.6 N 17 26 9 14 1008.4 - 0.0
18/01:00pm 33.3 36.7 25.3 63 5.7 N 17 30 9 16 1008.6 - 0.0
18/12:30pm 33.0 37.2 25.3 64 5.5 N 13 22 7 12 1008.9 - 0.0
18/12:00pm 33.3 36.9 25.6 64 5.5 N 17 28 9 15 1009.2 1009.0 0.0
18/11:30am 33.0 36.4 25.3 64 5.5 N 17 28 9 15 1009.6 - 0.0
18/11:00am 33.3 37.1 25.3 63 5.7 N 15 24 8 13 1009.8 - 0.0
18/10:30am 33.2 37.1 25.5 64 5.5 N 15 22 8 12 1010.1 - 0.0
18/10:00am 32.7 36.8 25.2 64 5.3 N 13 22 7 12 1010.1 - 0.0
18/09:30am 32.4 36.1 25.2 66 5.1 N 15 22 8 12 1010.2 - 0.0
18/09:00am 32.4 36.5 25.2 66 5.1 N 13 20 7 11 1010.1 1009.9 0.0
18/08:30am 31.8 35.7 24.9 67 4.9 N 13 19 7 10 1009.7 - 0.0
18/08:00am 31.0 35.4 25.1 71 4.2 N 11 17 6 9 1009.7 - 0.0
18/07:30am 30.9 36.3 25.5 73 3.8 N 7 13 4 7 1009.4 - 0.0
18/07:00am 29.4 35.6 25.8 81 2.6 N 4 6 2 3 1009.0 - 0.0
18/06:30am 27.6 34.3 25.4 88 1.5 CALM 0 0 0 0 1008.4 - 0.0
18/06:00am 27.4 33.9 25.0 87 1.7 CALM 0 0 0 0 1007.9 1007.7 0.0
18/05:30am 27.6 34.2 25.2 87 1.7 CALM 0 0 0 0 1007.5 - 0.0
18/05:00am 27.8 34.5 25.4 87 1.7 CALM 0 0 0 0 1007.1 - 0.0
18/04:30am 28.1 33.7 25.5 86 1.8 NW 6 9 3 5 1007.1 - 0.0
18/04:00am 28.1 34.5 25.5 86 1.8 NW 2 6 1 3 1006.8 - 0.0
18/03:30am 28.6 34.3 25.6 84 2.1 NW 6 7 3 4 1006.8 - 0.0
18/03:00am 28.3 33.8 25.3 84 2.1 NW 6 7 3 4 1006.7 1006.5 0.0
18/02:30am 28.9 34.5 25.7 83 2.3 NW 7 9 4 5 1006.7 - 0.0
18/02:00am 28.9 34.5 25.5 82 2.4 NNW 6 9 3 5 1007.0 - 0.0
18/01:30am 29.1 34.7 25.5 81 2.5 NNW 6 9 3 5 1007.3 - 0.0
18/01:00am 29.2 34.8 25.8 82 2.4 NNW 7 13 4 7 1007.8 - 0.0
18/12:30am 29.0 34.6 25.4 81 2.5 N 6 7 3 4 1008.1 - 0.0
18/12:00am 29.4 35.0 25.4 79 2.8 NNW 6 9 3 5 1008.5 1008.3 0.0
 
Date/Time
CST
Temp
°C
App
Temp
°C
Dew
Point
Rel
Hum
%
Delta-T
°C
Wind Press
QNH
hPa
Press
MSL
hPa
Rain
since 9 am
mm
Dir
 
Spd
km/h
Gust
km/h
Spd
kts
Gust
kts
17/11:30pm 29.5 34.8 25.3 78 3.0 NNW 7 13 4 7 1008.6 - 0.0
17/11:00pm 29.8 35.1 25.3 77 3.2 NNW 7 13 4 7 1008.9 - 0.0
17/10:30pm 29.9 34.9 25.4 77 3.2 NW 9 15 5 8 1008.7 - 0.0
17/10:00pm 29.9 34.8 25.2 76 3.3 NNW 9 13 5 7 1008.8 - 0.0
17/09:30pm 30.1 34.7 25.4 76 3.3 NW 11 17 6 9 1008.4 - 0.0
17/09:00pm 30.1 34.6 25.2 75 3.5 NNW 11 15 6 8 1007.6 1007.4 0.0
17/08:30pm 30.1 34.3 25.4 76 3.3 NNW 13 20 7 11 1007.0 - 0.0
17/08:00pm 30.0 35.2 25.7 78 3.0 NNW 9 13 5 7 1006.5 - 0.0
17/07:30pm 30.0 35.1 25.5 77 3.2 NNW 9 13 5 7 1006.2 - 0.0
17/07:00pm 30.3 34.7 25.6 76 3.3 NNW 13 22 7 12 1006.0 - 0.0
17/06:30pm 30.5 34.7 25.3 74 3.7 NNW 13 20 7 11 1005.4 - 0.0
17/06:00pm 31.2 36.2 26.0 74 3.7 NNW 11 20 6 11 1005.2 1005.0 0.0
17/05:30pm 30.8 35.3 25.8 74 3.6 N 13 22 7 12 1004.7 - 0.0
17/05:00pm 31.0 35.1 25.8 74 3.7 NNW 15 24 8 13 1004.6 - 0.0
17/04:30pm 31.1 35.2 25.7 73 3.8 NNW 15 22 8 12 1004.7 - 0.0
17/04:00pm 31.3 36.2 25.9 73 3.8 NNW 11 17 6 9 1004.9 - 0.0
17/03:30pm 31.6 36.5 25.9 72 4.1 NW 11 19 6 10 1005.3 - 0.0
17/03:00pm 31.4 35.7 25.5 71 4.2 NNW 13 24 7 13 1005.5 1005.3 0.0
17/02:30pm 32.2 35.9 25.8 69 4.6 N 17 30 9 16 1005.4 - 0.0
17/02:00pm 33.6 37.5 26.6 67 5.0 N 19 35 10 19 1005.9 - 0.0
17/01:30pm 33.8 37.2 25.8 63 5.7 N 19 32 10 17 1006.1 - 0.0
17/01:00pm 33.7 38.0 26.7 67 5.1 N 17 28 9 15 1006.9 - 0.0
17/12:30pm 32.5 36.9 25.6 67 4.9 N 13 24 7 13 1007.2 - 0.0
17/12:00pm 32.8 36.8 25.6 66 5.1 N 15 24 8 13 1007.5 1007.3 0.0
17/11:30am 32.2 36.3 25.8 69 4.6 N 15 26 8 14 1007.8 - 0.0
17/11:00am 33.3 37.5 25.3 63 5.7 NNW 13 22 7 12 1008.1 - 0.0
17/10:30am 33.5 37.3 24.7 60 6.2 NW 13 24 7 13 1008.2 - 0.0
17/10:00am 32.5 36.0 24.8 64 5.4 NW 15 24 8 13 1008.4 - 0.0
17/09:30am 32.5 37.1 24.8 64 5.4 NNW 9 17 5 9 1008.6 - 0.0
17/09:00am 32.6 36.5 24.9 64 5.4 NW 13 20 7 11 1008.4 1008.2 0.0
17/08:30am 31.4 35.6 24.8 68 4.6 WNW 11 19 6 10 1008.3 - 0.0
17/08:00am 30.7 34.6 24.8 71 4.1 WNW 13 20 7 11 1008.4 - 0.0
17/07:30am 29.8 33.8 25.1 76 3.3 WSW 13 17 7 9 1008.1 - 0.0
17/07:00am 30.1 35.9 26.0 78 2.9 W 7 11 4 6 1007.9 - 0.0
17/06:30am 29.7 35.5 26.1 81 2.6 NW 7 13 4 7 1007.3 - 0.0
17/06:00am 29.2 34.9 25.6 81 2.5 NNW 6 11 3 6 1006.8 1006.6 0.0
17/05:30am 29.3 34.7 25.5 80 2.7 NW 7 9 4 5 1006.3 - 0.0
17/05:00am 29.2 34.6 25.4 80 2.7 NW 7 13 4 7 1005.8 - 0.0
17/04:30am 29.3 34.9 25.7 81 2.5 NW 7 13 4 7 1005.6 - 0.0
17/04:00am 29.3 34.4 25.5 80 2.7 NW 9 17 5 9 1005.6 - 0.0
17/03:30am 29.3 34.5 25.7 81 2.5 NW 9 15 5 8 1005.5 - 0.0
17/03:00am 29.3 34.5 25.7 81 2.6 NW 9 15 5 8 1005.6 1005.4 0.0
17/02:30am 29.3 34.5 25.7 81 2.5 NW 9 17 5 9 1005.7 - 0.0
17/02:00am 29.3 34.7 25.5 80 2.7 NNW 7 9 4 5 1005.9 - 0.0
17/01:30am 29.6 34.9 25.3 77 3.0 NW 7 11 4 6 1006.4 - 0.0
17/01:00am 29.9 35.3 25.4 77 3.2 NW 7 11 4 6 1006.9 - 0.0
17/12:30am 29.9 35.3 25.4 77 3.2 NW 7 11 4 6 1006.8 - 0.0
17/12:00am 29.9 35.0 25.6 78 3.0 NNW 9 15 5 8 1007.0 1006.8 0.0
 
Date/Time
CST
Temp
°C
App
Temp
°C
Dew
Point
Rel
Hum
%
Delta-T
°C
Wind Press
QNH
hPa
Press
MSL
hPa
Rain
since 9 am
mm
Dir
 
Spd
km/h
Gust
km/h
Spd
kts
Gust
kts
16/11:30pm 29.8 34.6 25.1 76 3.3 NNW 9 20 5 11 1007.3 - 0.0
16/11:00pm 29.7 35.1 25.4 78 3.0 NNW 7 15 4 8 1007.5 - 0.0
16/10:30pm 29.9 35.4 25.6 78 3.0 NNW 7 11 4 6 1007.2 - 0.0
16/10:00pm 29.9 35.3 25.4 77 3.2 NNW 7 13 4 7 1007.1 - 0.0
16/09:30pm 29.9 35.3 25.4 77 3.2 NNW 7 11 4 6 1006.7 - 0.0
16/09:00pm 30.2 35.3 25.5 76 3.3 NW 9 13 5 7 1006.5 1006.3 0.0
16/08:30pm 30.2 35.3 25.5 76 3.3 NW 9 15 5 8 1006.3 - 0.0
16/08:00pm 30.3 35.6 25.8 77 3.2 NW 9 17 5 9 1005.9 - 0.0
16/07:30pm 30.5 35.8 25.8 76 3.3 NNW 9 19 5 10 1005.7 - 0.0
16/07:00pm 30.7 35.4 25.5 74 3.7 NNW 11 22 6 12 1005.6 - 0.0
16/06:30pm 31.0 35.1 25.8 74 3.7 NNW 15 24 8 13 1004.9 - 0.0
16/06:00pm 32.2 36.3 25.8 69 4.6 NNW 15 26 8 14 1004.3 1004.1 0.0
16/05:30pm 32.4 36.5 25.7 68 4.8 N 15 24 8 13 1004.1 - 0.0
16/05:00pm 32.6 36.1 25.4 66 5.1 NNW 17 24 9 13 1004.2 - 0.0
16/04:30pm 33.7 37.9 25.4 62 5.9 NNW 13 20 7 11 1004.3 - 0.0
16/04:00pm 33.2 37.6 25.7 64 5.4 NW 13 20 7 11 1004.9 - 0.0
16/03:30pm 32.3 36.2 25.4 67 4.9 NW 15 24 8 13 1005.0 - 0.0
16/03:00pm 32.2 36.9 25.5 67 4.8 NNW 11 20 6 11 1005.2 1005.0 0.0
16/02:30pm 31.9 36.2 25.5 69 4.5 NNW 13 20 7 11 1005.8 - 0.0
16/02:00pm 32.5 36.7 25.3 66 5.1 N 13 20 7 11 1006.1 - 0.0
16/01:30pm 33.7 36.4 25.1 60 6.1 N 20 33 11 18 1006.3 - 0.0
16/01:00pm 35.3 38.3 25.2 56 7.2 N 19 32 10 17 1006.6 - 0.0

Other Formats:

Comma delimited format used in spreadsheet applications
http://www.bom.gov.au/fwo/IDD60801/IDD60801.94140.axf

JavaScript Object Notation format (JSON) in row-major order
http://www.bom.gov.au/fwo/IDD60801/IDD60801.94140.json